sensor_id;sensor_type;location;lat;lon;timestamp;pressure;altitude;pressure_sealevel;temperature;humidity
55149;BME280;49539;48.160;11.530;2022-07-23T00:00:12;95820.59;;;24.74;100.00
55149;BME280;49539;48.160;11.530;2022-07-23T00:02:37;95817.06;;;24.74;100.00
55149;BME280;49539;48.160;11.530;2022-07-23T00:05:03;95821.13;;;24.73;100.00
55149;BME280;49539;48.160;11.530;2022-07-23T00:07:28;95832.28;;;24.67;100.00
55149;BME280;49539;48.160;11.530;2022-07-23T00:09:54;95817.88;;;24.63;100.00
55149;BME280;49539;48.160;11.530;2022-07-23T00:12:20;95798.69;;;24.54;100.00
55149;BME280;49539;48.160;11.530;2022-07-23T00:14:45;95796.88;;;24.62;100.00
55149;BME280;49539;48.160;11.530;2022-07-23T00:17:11;95798.16;;;24.56;100.00
55149;BME280;49539;48.160;11.530;2022-07-23T00:19:36;95794.88;;;24.57;100.00
55149;BME280;49539;48.160;11.530;2022-07-23T00:22:02;95812.06;;;24.61;100.00
55149;BME280;49539;48.160;11.530;2022-07-23T00:24:27;95805.75;;;24.61;100.00
55149;BME280;49539;48.160;11.530;2022-07-23T00:26:52;95819.94;;;24.57;100.00
55149;BME280;49539;48.160;11.530;2022-07-23T00:29:18;95845.22;;;24.65;100.00
55149;BME280;49539;48.160;11.530;2022-07-23T00:31:43;95837.16;;;24.56;100.00
55149;BME280;49539;48.160;11.530;2022-07-23T00:34:08;95835.91;;;24.57;100.00
55149;BME280;49539;48.160;11.530;2022-07-23T00:36:34;95828.25;;;24.63;100.00
55149;BME280;49539;48.160;11.530;2022-07-23T00:38:59;95828.38;;;24.35;100.00
55149;BME280;49539;48.160;11.530;2022-07-23T00:41:25;95838.47;;;24.49;100.00
55149;BME280;49539;48.160;11.530;2022-07-23T00:43:50;95833.66;;;24.49;100.00
55149;BME280;49539;48.160;11.530;2022-07-23T00:46:20;95842.75;;;24.50;100.00
55149;BME280;49539;48.160;11.530;2022-07-23T00:48:45;95842.81;;;24.39;100.00
55149;BME280;49539;48.160;11.530;2022-07-23T00:51:11;95849.41;;;24.41;100.00
55149;BME280;49539;48.160;11.530;2022-07-23T00:53:36;95847.09;;;24.40;100.00
55149;BME280;49539;48.160;11.530;2022-07-23T00:56:02;95849.91;;;24.34;100.00
55149;BME280;49539;48.160;11.530;2022-07-23T00:58:27;95850.22;;;24.25;100.00
55149;BME280;49539;48.160;11.530;2022-07-23T01:00:53;95868.91;;;24.30;100.00
55149;BME280;49539;48.160;11.530;2022-07-23T01:03:18;95885.09;;;24.26;100.00
55149;BME280;49539;48.160;11.530;2022-07-23T01:05:44;95894.69;;;24.31;100.00
55149;BME280;49539;48.160;11.530;2022-07-23T01:08:10;95934.47;;;24.14;100.00
55149;BME280;49539;48.160;11.530;2022-07-23T01:10:35;95943.38;;;24.07;100.00
55149;BME280;49539;48.160;11.530;2022-07-23T01:13:06;95945.88;;;24.11;100.00
55149;BME280;49539;48.160;11.530;2022-07-23T01:15:36;95972.97;;;24.05;100.00
55149;BME280;49539;48.160;11.530;2022-07-23T01:18:03;95972.19;;;24.15;100.00
55149;BME280;49539;48.160;11.530;2022-07-23T01:20:30;96013.41;;;24.06;100.00
55149;BME280;49539;48.160;11.530;2022-07-23T01:22:56;96021.28;;;23.96;100.00
55149;BME280;49539;48.160;11.530;2022-07-23T01:25:21;96042.28;;;23.74;100.00
55149;BME280;49539;48.160;11.530;2022-07-23T01:27:48;96070.75;;;23.47;100.00
55149;BME280;49539;48.160;11.530;2022-07-23T01:30:13;96120.56;;;22.48;100.00
55149;BME280;49539;48.160;11.530;2022-07-23T01:32:39;96169.59;;;21.52;100.00
55149;BME280;49539;48.160;11.530;2022-07-23T01:35:05;96156.69;;;20.88;100.00
55149;BME280;49539;48.160;11.530;2022-07-23T01:37:31;96130.38;;;20.28;100.00
55149;BME280;49539;48.160;11.530;2022-07-23T01:39:56;96113.44;;;20.20;100.00
55149;BME280;49539;48.160;11.530;2022-07-23T01:42:22;96084.00;;;19.88;100.00
55149;BME280;49539;48.160;11.530;2022-07-23T01:44:48;96044.13;;;19.50;100.00
55149;BME280;49539;48.160;11.530;2022-07-23T01:47:14;96043.13;;;19.08;100.00
55149;BME280;49539;48.160;11.530;2022-07-23T01:49:39;96031.50;;;18.90;100.00
55149;BME280;49539;48.160;11.530;2022-07-23T01:52:05;96045.72;;;18.73;100.00
55149;BME280;49539;48.160;11.530;2022-07-23T01:54:34;96046.97;;;18.63;100.00
55149;BME280;49539;48.160;11.530;2022-07-23T01:57:00;96059.16;;;18.56;100.00
55149;BME280;49539;48.160;11.530;2022-07-23T01:59:26;96047.53;;;18.52;100.00
55149;BME280;49539;48.160;11.530;2022-07-23T02:01:52;96023.97;;;18.66;100.00
55149;BME280;49539;48.160;11.530;2022-07-23T02:04:22;96040.03;;;18.77;100.00
55149;BME280;49539;48.160;11.530;2022-07-23T02:06:48;96042.59;;;18.56;100.00
55149;BME280;49539;48.160;11.530;2022-07-23T02:09:13;96047.28;;;18.65;100.00
55149;BME280;49539;48.160;11.530;2022-07-23T02:11:39;96052.50;;;18.72;100.00
55149;BME280;49539;48.160;11.530;2022-07-23T02:14:05;96062.59;;;18.66;100.00
55149;BME280;49539;48.160;11.530;2022-07-23T02:16:30;96068.28;;;18.63;100.00
55149;BME280;49539;48.160;11.530;2022-07-23T02:18:55;96060.06;;;18.53;100.00
55149;BME280;49539;48.160;11.530;2022-07-23T02:21:21;96045.22;;;18.51;100.00
55149;BME280;49539;48.160;11.530;2022-07-23T02:23:46;96055.06;;;18.43;100.00
55149;BME280;49539;48.160;11.530;2022-07-23T02:26:12;96033.25;;;18.54;100.00
55149;BME280;49539;48.160;11.530;2022-07-23T02:28:37;95996.41;;;18.42;100.00
55149;BME280;49539;48.160;11.530;2022-07-23T02:31:02;95986.31;;;18.39;100.00
55149;BME280;49539;48.160;11.530;2022-07-23T02:33:28;95979.44;;;18.34;100.00
55149;BME280;49539;48.160;11.530;2022-07-23T02:35:54;95982.78;;;18.39;100.00
55149;BME280;49539;48.160;11.530;2022-07-23T02:38:19;95964.38;;;18.45;100.00
55149;BME280;49539;48.160;11.530;2022-07-23T02:40:44;95955.09;;;18.57;100.00
55149;BME280;49539;48.160;11.530;2022-07-23T02:43:10;95964.19;;;18.48;100.00
55149;BME280;49539;48.160;11.530;2022-07-23T02:45:35;95975.09;;;18.43;100.00
55149;BME280;49539;48.160;11.530;2022-07-23T02:48:00;95976.50;;;18.38;100.00
55149;BME280;49539;48.160;11.530;2022-07-23T02:50:26;95981.19;;;18.47;100.00
55149;BME280;49539;48.160;11.530;2022-07-23T02:52:51;95998.63;;;18.53;100.00
55149;BME280;49539;48.160;11.530;2022-07-23T02:55:17;96014.25;;;18.56;100.00
55149;BME280;49539;48.160;11.530;2022-07-23T02:57:42;96021.63;;;18.50;100.00
55149;BME280;49539;48.160;11.530;2022-07-23T03:00:08;96041.84;;;18.56;100.00
55149;BME280;49539;48.160;11.530;2022-07-23T03:02:34;96066.41;;;18.45;100.00
55149;BME280;49539;48.160;11.530;2022-07-23T03:04:59;96095.78;;;18.57;100.00
55149;BME280;49539;48.160;11.530;2022-07-23T03:07:24;96110.31;;;18.57;100.00
55149;BME280;49539;48.160;11.530;2022-07-23T03:09:50;96060.34;;;18.55;100.00
55149;BME280;49539;48.160;11.530;2022-07-23T03:12:15;96068.34;;;18.53;100.00
55149;BME280;49539;48.160;11.530;2022-07-23T03:14:41;96068.78;;;18.61;100.00
55149;BME280;49539;48.160;11.530;2022-07-23T03:17:08;96056.31;;;18.66;100.00
55149;BME280;49539;48.160;11.530;2022-07-23T03:19:33;96057.69;;;18.70;100.00
55149;BME280;49539;48.160;11.530;2022-07-23T03:21:59;96071.00;;;18.72;100.00
55149;BME280;49539;48.160;11.530;2022-07-23T03:24:24;96067.50;;;18.71;100.00
55149;BME280;49539;48.160;11.530;2022-07-23T03:27:10;96052.31;;;18.67;100.00
55149;BME280;49539;48.160;11.530;2022-07-23T03:29:35;96044.66;;;18.71;100.00
55149;BME280;49539;48.160;11.530;2022-07-23T03:32:03;96040.38;;;18.70;100.00
55149;BME280;49539;48.160;11.530;2022-07-23T03:34:28;96014.31;;;18.71;100.00
55149;BME280;49539;48.160;11.530;2022-07-23T03:36:53;95969.47;;;18.61;100.00
55149;BME280;49539;48.160;11.530;2022-07-23T03:39:19;95955.31;;;18.68;100.00
55149;BME280;49539;48.160;11.530;2022-07-23T03:41:44;95936.00;;;18.68;100.00
55149;BME280;49539;48.160;11.530;2022-07-23T03:44:09;95924.66;;;18.66;100.00
55149;BME280;49539;48.160;11.530;2022-07-23T03:46:35;95949.78;;;18.68;100.00
55149;BME280;49539;48.160;11.530;2022-07-23T03:49:00;95974.00;;;18.73;100.00
55149;BME280;49539;48.160;11.530;2022-07-23T03:51:25;95966.56;;;18.79;100.00
55149;BME280;49539;48.160;11.530;2022-07-23T03:53:51;95967.31;;;18.80;100.00
55149;BME280;49539;48.160;11.530;2022-07-23T03:56:16;95970.75;;;18.75;100.00
55149;BME280;49539;48.160;11.530;2022-07-23T03:58:42;95965.34;;;18.80;100.00
55149;BME280;49539;48.160;11.530;2022-07-23T04:01:07;95951.56;;;18.80;100.00
55149;BME280;49539;48.160;11.530;2022-07-23T04:03:32;95959.84;;;18.80;100.00
55149;BME280;49539;48.160;11.530;2022-07-23T04:05:58;95975.16;;;18.81;100.00
55149;BME280;49539;48.160;11.530;2022-07-23T04:08:23;95968.88;;;18.81;100.00
55149;BME280;49539;48.160;11.530;2022-07-23T04:10:48;95962.09;;;18.82;100.00
55149;BME280;49539;48.160;11.530;2022-07-23T04:13:14;95963.34;;;18.81;100.00
55149;BME280;49539;48.160;11.530;2022-07-23T04:15:39;95955.16;;;18.87;100.00
55149;BME280;49539;48.160;11.530;2022-07-23T04:18:04;95954.22;;;18.90;100.00
55149;BME280;49539;48.160;11.530;2022-07-23T04:20:30;95953.81;;;18.82;100.00
55149;BME280;49539;48.160;11.530;2022-07-23T04:22:55;95948.69;;;18.90;100.00
55149;BME280;49539;48.160;11.530;2022-07-23T04:25:21;95925.09;;;18.89;100.00
55149;BME280;49539;48.160;11.530;2022-07-23T04:27:46;95917.28;;;18.87;100.00
55149;BME280;49539;48.160;11.530;2022-07-23T04:30:11;95917.47;;;18.83;100.00
55149;BME280;49539;48.160;11.530;2022-07-23T04:32:37;95914.25;;;18.85;100.00
55149;BME280;49539;48.160;11.530;2022-07-23T04:35:02;95916.34;;;18.90;100.00
55149;BME280;49539;48.160;11.530;2022-07-23T04:37:28;95922.63;;;18.91;100.00
55149;BME280;49539;48.160;11.530;2022-07-23T04:39:53;95921.38;;;19.06;100.00
55149;BME280;49539;48.160;11.530;2022-07-23T04:42:18;95920.34;;;19.04;100.00
55149;BME280;49539;48.160;11.530;2022-07-23T04:44:44;95919.56;;;19.03;100.00
55149;BME280;49539;48.160;11.530;2022-07-23T04:47:09;95918.63;;;19.06;100.00
55149;BME280;49539;48.160;11.530;2022-07-23T04:49:35;95926.72;;;19.10;100.00
55149;BME280;49539;48.160;11.530;2022-07-23T04:52:01;95927.00;;;19.12;100.00
55149;BME280;49539;48.160;11.530;2022-07-23T04:54:27;95914.81;;;19.19;100.00
55149;BME280;49539;48.160;11.530;2022-07-23T04:56:52;95910.06;;;19.19;100.00
55149;BME280;49539;48.160;11.530;2022-07-23T04:59:18;95903.66;;;19.13;100.00
55149;BME280;49539;48.160;11.530;2022-07-23T05:01:43;95908.34;;;19.22;100.00
55149;BME280;49539;48.160;11.530;2022-07-23T05:04:09;95912.69;;;19.28;100.00
55149;BME280;49539;48.160;11.530;2022-07-23T05:06:34;95912.69;;;19.28;100.00
55149;BME280;49539;48.160;11.530;2022-07-23T05:08:59;95921.19;;;19.25;100.00
55149;BME280;49539;48.160;11.530;2022-07-23T05:11:25;95909.66;;;19.26;100.00
55149;BME280;49539;48.160;11.530;2022-07-23T05:13:50;95911.56;;;19.20;100.00
55149;BME280;49539;48.160;11.530;2022-07-23T05:16:16;95901.38;;;19.26;100.00
55149;BME280;49539;48.160;11.530;2022-07-23T05:18:42;95900.41;;;19.29;100.00
55149;BME280;49539;48.160;11.530;2022-07-23T05:21:07;95895.38;;;19.28;100.00
55149;BME280;49539;48.160;11.530;2022-07-23T05:23:32;95899.47;;;19.32;100.00
55149;BME280;49539;48.160;11.530;2022-07-23T05:25:58;95907.19;;;19.28;100.00
55149;BME280;49539;48.160;11.530;2022-07-23T05:28:23;95898.44;;;19.30;100.00
55149;BME280;49539;48.160;11.530;2022-07-23T05:30:48;95906.03;;;19.35;100.00
55149;BME280;49539;48.160;11.530;2022-07-23T05:33:14;95913.84;;;19.37;100.00
55149;BME280;49539;48.160;11.530;2022-07-23T05:35:39;95918.03;;;19.32;100.00
55149;BME280;49539;48.160;11.530;2022-07-23T05:38:05;95915.75;;;19.30;100.00
55149;BME280;49539;48.160;11.530;2022-07-23T05:40:30;95916.91;;;19.39;100.00
55149;BME280;49539;48.160;11.530;2022-07-23T05:42:55;95910.13;;;19.40;100.00
55149;BME280;49539;48.160;11.530;2022-07-23T05:45:21;95911.94;;;19.43;100.00
55149;BME280;49539;48.160;11.530;2022-07-23T05:47:48;95923.25;;;19.45;100.00
55149;BME280;49539;48.160;11.530;2022-07-23T05:50:14;95941.34;;;19.46;100.00
55149;BME280;49539;48.160;11.530;2022-07-23T05:52:40;95940.31;;;19.43;100.00
55149;BME280;49539;48.160;11.530;2022-07-23T05:55:07;95959.66;;;19.43;100.00
55149;BME280;49539;48.160;11.530;2022-07-23T05:57:32;95954.69;;;19.47;100.00
55149;BME280;49539;48.160;11.530;2022-07-23T05:59:58;95958.22;;;19.48;100.00
55149;BME280;49539;48.160;11.530;2022-07-23T06:02:23;95975.75;;;19.45;100.00
55149;BME280;49539;48.160;11.530;2022-07-23T06:04:49;95966.00;;;19.49;100.00
55149;BME280;49539;48.160;11.530;2022-07-23T06:07:14;95948.88;;;19.45;100.00
55149;BME280;49539;48.160;11.530;2022-07-23T06:09:39;95948.13;;;19.45;100.00
55149;BME280;49539;48.160;11.530;2022-07-23T06:12:05;95951.63;;;19.45;100.00
55149;BME280;49539;48.160;11.530;2022-07-23T06:14:31;95948.59;;;19.43;100.00
55149;BME280;49539;48.160;11.530;2022-07-23T06:16:56;95940.69;;;19.51;100.00
55149;BME280;49539;48.160;11.530;2022-07-23T06:19:22;95930.84;;;19.50;100.00
55149;BME280;49539;48.160;11.530;2022-07-23T06:21:47;95931.84;;;19.47;100.00
55149;BME280;49539;48.160;11.530;2022-07-23T06:24:12;95920.78;;;19.47;100.00
55149;BME280;49539;48.160;11.530;2022-07-23T06:26:38;95892.00;;;19.53;100.00
55149;BME280;49539;48.160;11.530;2022-07-23T06:29:03;95886.19;;;19.51;100.00
55149;BME280;49539;48.160;11.530;2022-07-23T06:31:29;95883.63;;;19.48;100.00
55149;BME280;49539;48.160;11.530;2022-07-23T06:33:54;95892.19;;;19.50;100.00
55149;BME280;49539;48.160;11.530;2022-07-23T06:36:20;95904.50;;;19.64;100.00
55149;BME280;49539;48.160;11.530;2022-07-23T06:38:45;95911.50;;;19.79;100.00
55149;BME280;49539;48.160;11.530;2022-07-23T06:41:10;95916.81;;;19.83;100.00
55149;BME280;49539;48.160;11.530;2022-07-23T06:43:36;95941.91;;;19.79;100.00
55149;BME280;49539;48.160;11.530;2022-07-23T06:46:01;95972.38;;;19.85;100.00
55149;BME280;49539;48.160;11.530;2022-07-23T06:48:27;95967.34;;;19.83;100.00
55149;BME280;49539;48.160;11.530;2022-07-23T06:50:53;95971.78;;;19.96;100.00
55149;BME280;49539;48.160;11.530;2022-07-23T06:53:19;95969.28;;;19.98;100.00
55149;BME280;49539;48.160;11.530;2022-07-23T06:55:45;95973.94;;;20.06;100.00
55149;BME280;49539;48.160;11.530;2022-07-23T06:58:10;95970.81;;;19.99;100.00
55149;BME280;49539;48.160;11.530;2022-07-23T07:00:36;95984.75;;;20.25;100.00
55149;BME280;49539;48.160;11.530;2022-07-23T07:03:01;95992.91;;;20.34;100.00
55149;BME280;49539;48.160;11.530;2022-07-23T07:05:27;95993.63;;;20.29;100.00
55149;BME280;49539;48.160;11.530;2022-07-23T07:07:54;95995.94;;;20.36;100.00
55149;BME280;49539;48.160;11.530;2022-07-23T07:10:19;95985.31;;;20.29;100.00
55149;BME280;49539;48.160;11.530;2022-07-23T07:12:45;95972.25;;;20.29;100.00
55149;BME280;49539;48.160;11.530;2022-07-23T07:15:11;95972.94;;;20.24;100.00
55149;BME280;49539;48.160;11.530;2022-07-23T07:17:37;95979.00;;;20.28;100.00
55149;BME280;49539;48.160;11.530;2022-07-23T07:20:03;95983.00;;;20.27;100.00
55149;BME280;49539;48.160;11.530;2022-07-23T07:22:28;95975.69;;;20.24;100.00
55149;BME280;49539;48.160;11.530;2022-07-23T07:24:54;95975.41;;;20.22;100.00
55149;BME280;49539;48.160;11.530;2022-07-23T07:27:19;95969.63;;;20.20;100.00
55149;BME280;49539;48.160;11.530;2022-07-23T07:29:45;95964.00;;;20.15;100.00
55149;BME280;49539;48.160;11.530;2022-07-23T07:32:10;95978.72;;;20.06;100.00
55149;BME280;49539;48.160;11.530;2022-07-23T07:34:35;95985.34;;;20.14;100.00
55149;BME280;49539;48.160;11.530;2022-07-23T07:37:01;95990.50;;;20.21;100.00
55149;BME280;49539;48.160;11.530;2022-07-23T07:39:26;95993.66;;;20.14;100.00
55149;BME280;49539;48.160;11.530;2022-07-23T07:41:51;95992.97;;;20.19;100.00
55149;BME280;49539;48.160;11.530;2022-07-23T07:44:17;95993.09;;;20.10;100.00
55149;BME280;49539;48.160;11.530;2022-07-23T07:46:42;96005.63;;;20.26;100.00
55149;BME280;49539;48.160;11.530;2022-07-23T07:49:08;96002.47;;;20.33;100.00
55149;BME280;49539;48.160;11.530;2022-07-23T07:51:33;96008.41;;;20.46;100.00
55149;BME280;49539;48.160;11.530;2022-07-23T07:53:59;96014.34;;;20.54;100.00
55149;BME280;49539;48.160;11.530;2022-07-23T07:56:25;96012.31;;;20.54;100.00
55149;BME280;49539;48.160;11.530;2022-07-23T07:58:50;96009.41;;;20.64;100.00
55149;BME280;49539;48.160;11.530;2022-07-23T08:01:15;96014.38;;;20.60;100.00
55149;BME280;49539;48.160;11.530;2022-07-23T08:03:42;96008.59;;;20.58;100.00
55149;BME280;49539;48.160;11.530;2022-07-23T08:06:07;96005.47;;;20.70;100.00
55149;BME280;49539;48.160;11.530;2022-07-23T08:08:33;95989.63;;;20.71;100.00
55149;BME280;49539;48.160;11.530;2022-07-23T08:10:58;95985.00;;;20.62;100.00
55149;BME280;49539;48.160;11.530;2022-07-23T08:13:23;95981.03;;;20.69;100.00
55149;BME280;49539;48.160;11.530;2022-07-23T08:15:49;95996.06;;;20.62;100.00
55149;BME280;49539;48.160;11.530;2022-07-23T08:18:14;96002.97;;;20.52;100.00
55149;BME280;49539;48.160;11.530;2022-07-23T08:20:40;96003.09;;;20.43;100.00
55149;BME280;49539;48.160;11.530;2022-07-23T08:23:07;95995.97;;;20.56;100.00
55149;BME280;49539;48.160;11.530;2022-07-23T08:25:41;96004.72;;;20.70;100.00
55149;BME280;49539;48.160;11.530;2022-07-23T08:28:14;95997.63;;;20.89;100.00
55149;BME280;49539;48.160;11.530;2022-07-23T08:30:44;96000.31;;;21.04;100.00
55149;BME280;49539;48.160;11.530;2022-07-23T08:33:14;95988.09;;;21.16;100.00
55149;BME280;49539;48.160;11.530;2022-07-23T08:35:47;95991.53;;;21.31;100.00
55149;BME280;49539;48.160;11.530;2022-07-23T08:38:15;95981.25;;;21.38;100.00
55149;BME280;49539;48.160;11.530;2022-07-23T08:40:45;95990.47;;;21.55;100.00
55149;BME280;49539;48.160;11.530;2022-07-23T08:43:20;95991.88;;;21.71;100.00
55149;BME280;49539;48.160;11.530;2022-07-23T08:45:48;95987.63;;;21.75;100.00
55149;BME280;49539;48.160;11.530;2022-07-23T08:48:17;95985.81;;;21.72;100.00
55149;BME280;49539;48.160;11.530;2022-07-23T08:50:45;95980.47;;;22.00;100.00
55149;BME280;49539;48.160;11.530;2022-07-23T08:53:12;95996.66;;;22.08;100.00
55149;BME280;49539;48.160;11.530;2022-07-23T08:55:37;95990.72;;;22.20;100.00
55149;BME280;49539;48.160;11.530;2022-07-23T08:58:03;96004.88;;;22.28;100.00
55149;BME280;49539;48.160;11.530;2022-07-23T09:00:29;96030.91;;;22.31;100.00
55149;BME280;49539;48.160;11.530;2022-07-23T09:02:54;96053.13;;;22.42;100.00
55149;BME280;49539;48.160;11.530;2022-07-23T09:05:20;96049.25;;;22.65;100.00
55149;BME280;49539;48.160;11.530;2022-07-23T09:08:12;96046.97;;;22.64;100.00
55149;BME280;49539;48.160;11.530;2022-07-23T09:10:58;96041.88;;;22.57;100.00
55149;BME280;49539;48.160;11.530;2022-07-23T09:13:46;96048.16;;;22.51;100.00
55149;BME280;49539;48.160;11.530;2022-07-23T09:18:53;96045.88;;;22.50;100.00
55149;BME280;49539;48.160;11.530;2022-07-23T09:24:07;96044.78;;;22.85;100.00
55149;BME280;49539;48.160;11.530;2022-07-23T09:26:38;96051.34;;;22.82;100.00
55149;BME280;49539;48.160;11.530;2022-07-23T09:29:09;96044.63;;;23.05;100.00
55149;BME280;49539;48.160;11.530;2022-07-23T09:31:54;96046.28;;;22.80;100.00
55149;BME280;49539;48.160;11.530;2022-07-23T09:34:22;96044.38;;;23.03;100.00
55149;BME280;49539;48.160;11.530;2022-07-23T09:36:48;96045.88;;;23.04;100.00
55149;BME280;49539;48.160;11.530;2022-07-23T09:39:16;96059.34;;;23.22;100.00
55149;BME280;49539;48.160;11.530;2022-07-23T09:41:45;96052.06;;;23.42;100.00
55149;BME280;49539;48.160;11.530;2022-07-23T09:44:16;96033.66;;;23.67;100.00
55149;BME280;49539;48.160;11.530;2022-07-23T09:46:43;96034.16;;;23.76;100.00
55149;BME280;49539;48.160;11.530;2022-07-23T09:49:14;96022.53;;;24.06;100.00
55149;BME280;49539;48.160;11.530;2022-07-23T09:51:44;96028.06;;;24.29;100.00
55149;BME280;49539;48.160;11.530;2022-07-23T09:54:40;96023.75;;;24.44;100.00
55149;BME280;49539;48.160;11.530;2022-07-23T09:57:09;96024.72;;;24.58;100.00
55149;BME280;49539;48.160;11.530;2022-07-23T09:59:37;96015.53;;;24.86;100.00
55149;BME280;49539;48.160;11.530;2022-07-23T10:02:04;96004.97;;;25.20;100.00
55149;BME280;49539;48.160;11.530;2022-07-23T10:04:31;96004.53;;;25.05;100.00
55149;BME280;49539;48.160;11.530;2022-07-23T10:07:02;96010.75;;;25.28;100.00
55149;BME280;49539;48.160;11.530;2022-07-23T10:12:00;96012.16;;;24.98;100.00
55149;BME280;49539;48.160;11.530;2022-07-23T10:14:30;96015.97;;;24.95;100.00
55149;BME280;49539;48.160;11.530;2022-07-23T10:16:58;96004.22;;;25.19;100.00
55149;BME280;49539;48.160;11.530;2022-07-23T10:19:25;95998.28;;;25.34;100.00
55149;BME280;49539;48.160;11.530;2022-07-23T10:22:04;96001.16;;;25.23;100.00
55149;BME280;49539;48.160;11.530;2022-07-23T10:30:02;95977.28;;;25.63;100.00
55149;BME280;49539;48.160;11.530;2022-07-23T10:36:02;95980.50;;;25.79;100.00
55149;BME280;49539;48.160;11.530;2022-07-23T10:41:05;95978.91;;;26.38;100.00
55149;BME280;49539;48.160;11.530;2022-07-23T10:43:31;95982.19;;;26.42;100.00
55149;BME280;49539;48.160;11.530;2022-07-23T10:46:25;95983.41;;;26.46;100.00
55149;BME280;49539;48.160;11.530;2022-07-23T10:49:20;95970.41;;;26.24;100.00
55149;BME280;49539;48.160;11.530;2022-07-23T10:52:26;95965.91;;;26.46;100.00
55149;BME280;49539;48.160;11.530;2022-07-23T10:54:53;95968.31;;;26.31;100.00
55149;BME280;49539;48.160;11.530;2022-07-23T10:57:21;95965.47;;;26.61;100.00
55149;BME280;49539;48.160;11.530;2022-07-23T11:02:43;95963.38;;;26.67;100.00
55149;BME280;49539;48.160;11.530;2022-07-23T11:05:11;95963.91;;;26.84;100.00
55149;BME280;49539;48.160;11.530;2022-07-23T11:10:40;95958.19;;;27.14;100.00
55149;BME280;49539;48.160;11.530;2022-07-23T11:31:56;95968.69;;;25.97;100.00
55149;BME280;49539;48.160;11.530;2022-07-23T11:34:54;95957.97;;;25.71;100.00
55149;BME280;49539;48.160;11.530;2022-07-23T11:37:28;95972.66;;;25.77;100.00
55149;BME280;49539;48.160;11.530;2022-07-23T11:39:57;95965.72;;;25.84;100.00
55149;BME280;49539;48.160;11.530;2022-07-23T11:42:23;95965.91;;;25.61;100.00
55149;BME280;49539;48.160;11.530;2022-07-23T11:44:50;95956.97;;;25.68;100.00
55149;BME280;49539;48.160;11.530;2022-07-23T11:47:24;95956.50;;;25.64;100.00
55149;BME280;49539;48.160;11.530;2022-07-23T11:49:58;95959.59;;;25.55;100.00
55149;BME280;49539;48.160;11.530;2022-07-23T11:52:25;95958.75;;;25.66;100.00
55149;BME280;49539;48.160;11.530;2022-07-23T11:57:24;95969.31;;;25.48;100.00
55149;BME280;49539;48.160;11.530;2022-07-23T11:59:53;95968.44;;;25.59;100.00
55149;BME280;49539;48.160;11.530;2022-07-23T12:02:20;95969.91;;;25.36;100.00
55149;BME280;49539;48.160;11.530;2022-07-23T12:04:49;95963.78;;;25.43;100.00
55149;BME280;49539;48.160;11.530;2022-07-23T12:07:36;95961.00;;;25.37;100.00
55149;BME280;49539;48.160;11.530;2022-07-23T12:10:04;95957.75;;;25.33;100.00
55149;BME280;49539;48.160;11.530;2022-07-23T12:15:06;95966.66;;;25.26;100.00
55149;BME280;49539;48.160;11.530;2022-07-23T12:17:34;95962.56;;;25.33;100.00
55149;BME280;49539;48.160;11.530;2022-07-23T12:20:01;95951.69;;;25.35;100.00
55149;BME280;49539;48.160;11.530;2022-07-23T12:22:38;95958.50;;;25.34;100.00
55149;BME280;49539;48.160;11.530;2022-07-23T12:25:10;95956.09;;;25.13;100.00
55149;BME280;49539;48.160;11.530;2022-07-23T12:27:36;95970.56;;;25.12;100.00
55149;BME280;49539;48.160;11.530;2022-07-23T12:30:24;95958.44;;;25.04;100.00
55149;BME280;49539;48.160;11.530;2022-07-23T12:32:53;95959.94;;;25.10;100.00
55149;BME280;49539;48.160;11.530;2022-07-23T12:35:19;95953.66;;;24.98;100.00
55149;BME280;49539;48.160;11.530;2022-07-23T12:37:47;95960.94;;;25.07;100.00
55149;BME280;49539;48.160;11.530;2022-07-23T12:40:28;95954.84;;;25.14;100.00
55149;BME280;49539;48.160;11.530;2022-07-23T12:42:59;95961.94;;;25.15;100.00
55149;BME280;49539;48.160;11.530;2022-07-23T12:45:26;95951.63;;;24.99;100.00
55149;BME280;49539;48.160;11.530;2022-07-23T12:48:02;95958.34;;;24.73;100.00
55149;BME280;49539;48.160;11.530;2022-07-23T12:53:12;95953.88;;;25.00;100.00
55149;BME280;49539;48.160;11.530;2022-07-23T12:55:40;95961.19;;;25.15;100.00
55149;BME280;49539;48.160;11.530;2022-07-23T12:58:17;95968.03;;;25.08;100.00
55149;BME280;49539;48.160;11.530;2022-07-23T13:01:10;95962.75;;;24.99;100.00
55149;BME280;49539;48.160;11.530;2022-07-23T13:04:12;95965.22;;;25.14;100.00
55149;BME280;49539;48.160;11.530;2022-07-23T13:09:14;95967.53;;;25.10;100.00
55149;BME280;49539;48.160;11.530;2022-07-23T13:11:40;95967.53;;;25.10;100.00
55149;BME280;49539;48.160;11.530;2022-07-23T13:14:06;95975.91;;;25.04;100.00
55149;BME280;49539;48.160;11.530;2022-07-23T13:16:32;95964.25;;;25.11;100.00
55149;BME280;49539;48.160;11.530;2022-07-23T13:18:58;95969.88;;;24.94;100.00
55149;BME280;49539;48.160;11.530;2022-07-23T13:21:25;95973.03;;;24.74;100.00
55149;BME280;49539;48.160;11.530;2022-07-23T13:23:51;95977.78;;;24.85;100.00
55149;BME280;49539;48.160;11.530;2022-07-23T13:26:17;95969.94;;;24.83;100.00
55149;BME280;49539;48.160;11.530;2022-07-23T13:28:42;95970.75;;;24.72;100.00
55149;BME280;49539;48.160;11.530;2022-07-23T13:31:08;95969.25;;;24.66;100.00
55149;BME280;49539;48.160;11.530;2022-07-23T13:33:33;95977.56;;;24.77;100.00
55149;BME280;49539;48.160;11.530;2022-07-23T13:35:59;95973.31;;;25.17;100.00